Time;durP1;ratioP1;P1;durP2;ratioP2;P2;SDS_P1;SDS_P2;PMS_P1;PMS_P2;Temp;Humidity;BMP_temperature;BMP_pressure;BME280_temperature;BME280_humidity;BME280_pressure;Samples;Min_cycle;Max_cycle;Signal;HPM_P1;HPM_P2
2022/11/22 00:00:35;;;;;;;16.80;2.10;;;6.70;99.90;;;;;;5089747;28;20183;-56
2022/11/22 00:03:01;;;;;;;11.07;1.90;;;;;;;;;;5071598;28;20208;-56
2022/11/22 00:05:27;;;;;;;15.40;1.90;;;;;;;;;;5071464;28;20523;-58
2022/11/22 00:07:52;;;;;;;15.33;1.53;;;6.80;99.90;;;;;;5071585;28;20183;-56
2022/11/22 00:10:19;;;;;;;15.90;1.43;;;6.60;99.90;;;;;;5071596;28;20321;-56
2022/11/22 00:12:45;;;;;;;16.77;1.93;;;6.50;99.90;;;;;;5075090;28;20225;-56
2022/11/22 00:15:11;;;;;;;10.77;1.83;;;6.50;99.90;;;;;;5086833;28;20270;-57
2022/11/22 00:17:37;;;;;;;16.77;1.73;;;6.50;99.90;;;;;;5078018;28;20589;-59
2022/11/22 00:20:04;;;;;;;15.30;1.97;;;6.60;99.90;;;;;;5085314;28;20180;-58
2022/11/22 00:22:31;;;;;;;14.73;1.67;;;6.50;99.90;;;;;;5072764;28;20330;-58
2022/11/22 00:24:56;;;;;;;17.27;1.93;;;6.20;99.90;;;;;;5086019;28;20195;-56
2022/11/22 00:27:22;;;;;;;6.27;1.60;;;6.60;99.90;;;;;;5071554;28;20176;-57
2022/11/22 00:29:48;;;;;;;8.80;1.73;;;6.30;99.90;;;;;;5071553;28;20188;-56
2022/11/22 00:32:14;;;;;;;7.63;1.80;;;;;;;;;;5071718;28;20268;-56
2022/11/22 00:34:39;;;;;;;14.13;1.80;;;6.10;99.90;;;;;;5073634;28;20195;-56
2022/11/22 00:37:05;;;;;;;16.00;1.80;;;6.00;99.90;;;;;;5083836;28;20180;-56
2022/11/22 00:39:31;;;;;;;14.83;1.77;;;6.00;99.90;;;;;;5072641;28;20219;-56
2022/11/22 00:41:56;;;;;;;7.40;2.10;;;6.00;99.90;;;;;;5071051;28;20216;-56
2022/11/22 00:44:22;;;;;;;19.17;2.00;;;6.20;99.90;;;;;;5078342;28;20208;-56
2022/11/22 00:46:48;;;;;;;14.30;1.90;;;5.50;99.90;;;;;;5087401;28;20215;-56
2022/11/22 00:49:13;;;;;;;19.00;2.03;;;5.40;99.90;;;;;;5077762;28;20180;-56
2022/11/22 00:51:39;;;;;;;16.33;1.73;;;5.90;99.90;;;;;;5074395;28;20180;-56
2022/11/22 00:54:05;;;;;;;8.57;1.23;;;6.10;99.90;;;;;;5070947;28;20188;-56
2022/11/22 00:56:32;;;;;;;9.60;1.60;;;5.80;99.90;;;;;;5086085;28;20646;-56
2022/11/22 00:58:57;;;;;;;12.90;1.63;;;5.80;99.90;;;;;;5069521;28;20180;-56
2022/11/22 01:01:23;;;;;;;8.90;1.20;;;5.50;99.90;;;;;;5086394;28;20181;-56
2022/11/22 01:03:48;;;;;;;13.87;1.40;;;5.80;99.90;;;;;;5070917;28;20675;-56
2022/11/22 01:06:14;;;;;;;8.77;1.30;;;5.90;99.90;;;;;;5073825;28;20181;-58
2022/11/22 01:08:40;;;;;;;15.13;1.70;;;6.00;99.90;;;;;;5070662;28;20600;-58
2022/11/22 01:11:05;;;;;;;9.57;1.40;;;5.70;99.90;;;;;;5076340;28;20263;-56
2022/11/22 01:13:31;;;;;;;16.00;1.63;;;5.80;99.90;;;;;;5079085;28;20186;-56
2022/11/22 01:16:02;;;;;;;10.70;1.53;;;5.80;99.90;;;;;;5081022;28;20184;-56
2022/11/22 01:18:28;;;;;;;12.27;1.43;;;;;;;;;;5088213;28;20207;-56
2022/11/22 01:20:54;;;;;;;10.50;1.20;;;5.90;99.90;;;;;;5060459;28;20200;-57
2022/11/22 01:23:20;;;;;;;15.87;1.50;;;6.00;99.90;;;;;;5070998;28;20251;-57
2022/11/22 01:25:45;;;;;;;7.90;1.40;;;6.50;99.90;;;;;;5071125;28;20260;-57
2022/11/22 01:28:11;;;;;;;8.17;1.10;;;6.10;99.90;;;;;;5070718;28;20686;-57
2022/11/22 01:30:37;;;;;;;8.17;1.53;;;6.00;99.90;;;;;;5069776;28;20180;-57
2022/11/22 01:33:03;;;;;;;7.60;1.43;;;6.10;99.90;;;;;;5070740;28;20199;-57
2022/11/22 01:35:28;;;;;;;6.10;1.40;;;6.00;99.90;;;;;;5070833;28;20176;-57
2022/11/22 01:37:54;;;;;;;7.17;1.07;;;;;;;;;;5070550;28;20187;-57
2022/11/22 01:40:20;;;;;;;9.07;1.03;;;6.10;99.90;;;;;;5079555;28;20750;-56
2022/11/22 01:42:50;;;;;;;10.33;1.30;;;6.00;99.90;;;;;;5088065;28;20215;-57
2022/11/22 01:45:28;;;;;;;9.73;1.17;;;6.00;99.90;;;;;;5078715;28;20226;-58
2022/11/22 01:48:10;;;;;;;7.90;1.23;;;6.00;99.90;;;;;;5076884;28;20196;-59
2022/11/22 01:50:38;;;;;;;10.20;1.20;;;5.70;99.90;;;;;;5088412;28;20195;-57
2022/11/22 01:53:12;;;;;;;7.03;1.17;;;5.80;99.90;;;;;;5082444;28;20181;-57
2022/11/22 01:55:39;;;;;;;7.93;1.47;;;5.90;99.90;;;;;;5070573;28;20176;-57
2022/11/22 01:58:06;;;;;;;5.70;1.13;;;5.70;99.90;;;;;;5071235;28;20185;-57
2022/11/22 02:00:31;;;;;;;7.03;2.10;;;5.80;99.90;;;;;;5070599;28;20702;-57
2022/11/22 02:03:00;;;;;;;10.20;1.60;;;5.70;99.90;;;;;;5070191;28;20251;-57
2022/11/22 02:05:29;;;;;;;7.77;1.10;;;5.70;99.90;;;;;;5074174;28;20170;-57
2022/11/22 02:08:00;;;;;;;7.40;1.10;;;5.60;99.90;;;;;;5073578;28;20593;-57
2022/11/22 02:10:28;;;;;;;11.20;1.33;;;5.50;99.90;;;;;;5060454;28;20268;-58
2022/11/22 02:12:58;;;;;;;7.37;1.30;;;5.10;99.90;;;;;;5080968;28;20211;-57
2022/11/22 02:15:24;;;;;;;8.87;0.93;;;5.50;99.90;;;;;;5087538;28;20242;-57
2022/11/22 02:17:49;;;;;;;6.70;1.20;;;5.40;99.90;;;;;;5076538;28;20196;-57
2022/11/22 02:20:16;;;;;;;6.37;1.23;;;5.40;99.90;;;;;;5076146;28;20176;-57
2022/11/22 02:23:10;;;;;;;11.57;1.30;;;5.00;99.90;;;;;;5082496;28;20296;-57
2022/11/22 02:25:36;;;;;;;11.83;1.30;;;5.30;99.90;;;;;;5090707;28;20198;-57
2022/11/22 02:28:03;;;;;;;10.70;1.20;;;5.50;99.90;;;;;;5083793;28;20654;-57
2022/11/22 02:30:29;;;;;;;23.77;1.50;;;5.50;99.90;;;;;;5055654;28;20618;-57
2022/11/22 02:32:54;;;;;;;5.97;0.70;;;5.70;99.90;;;;;;5073761;28;20252;-57
2022/11/22 02:35:23;;;;;;;5.40;1.00;;;5.70;99.90;;;;;;5071553;28;20574;-57
2022/11/22 02:37:53;;;;;;;6.47;1.10;;;5.90;99.90;;;;;;5073325;28;20177;-57
2022/11/22 02:40:20;;;;;;;4.90;0.63;;;5.90;99.90;;;;;;5073591;28;20248;-57
2022/11/22 02:42:54;;;;;;;11.93;0.80;;;6.10;99.90;;;;;;5087146;28;20207;-57
2022/11/22 02:45:20;;;;;;;7.80;0.70;;;6.30;99.90;;;;;;5081858;28;20171;-58
2022/11/22 02:47:45;;;;;;;9.43;0.60;;;6.40;99.90;;;;;;5073378;28;20538;-57
2022/11/22 02:50:11;;;;;;;7.93;0.80;;;6.80;99.90;;;;;;5075321;28;20177;-57
2022/11/22 02:52:37;;;;;;;9.83;0.87;;;6.60;99.90;;;;;;5075234;28;20176;-57
2022/11/22 02:55:03;;;;;;;6.40;0.93;;;6.90;99.90;;;;;;5091568;28;20213;-57
2022/11/22 02:57:28;;;;;;;3.30;0.60;;;6.70;99.90;;;;;;5087298;28;20193;-57
2022/11/22 02:59:54;;;;;;;6.47;0.80;;;6.90;99.90;;;;;;5073257;28;20531;-57
2022/11/22 03:02:19;;;;;;;3.90;0.60;;;6.80;99.90;;;;;;5073326;28;20200;-57
2022/11/22 03:04:45;;;;;;;8.53;0.80;;;6.90;99.90;;;;;;5076807;28;20638;-58
2022/11/22 03:07:11;;;;;;;8.20;0.80;;;7.00;99.90;;;;;;5072784;28;20272;-57
2022/11/22 03:09:36;;;;;;;7.73;0.97;;;7.00;99.90;;;;;;5078102;28;20292;-57
2022/11/22 03:12:02;;;;;;;11.10;0.73;;;7.10;99.90;;;;;;5080863;28;20263;-57
2022/11/22 03:14:28;;;;;;;5.50;0.60;;;7.00;99.90;;;;;;5073053;28;20200;-57
2022/11/22 03:16:53;;;;;;;6.60;0.73;;;7.30;99.90;;;;;;5078154;28;20181;-57
2022/11/22 03:19:19;;;;;;;6.67;0.70;;;7.00;99.90;;;;;;5085744;28;20180;-57
2022/11/22 03:21:45;;;;;;;10.57;0.80;;;7.10;99.90;;;;;;5080166;28;20176;-58
2022/11/22 03:24:11;;;;;;;6.40;1.00;;;7.10;99.90;;;;;;5076692;28;20307;-57
2022/11/22 03:26:37;;;;;;;6.33;0.80;;;7.20;99.90;;;;;;5090650;28;20236;-58
2022/11/22 03:29:03;;;;;;;7.87;1.10;;;7.20;99.90;;;;;;5081389;28;20212;-58
2022/11/22 03:31:28;;;;;;;4.80;0.90;;;7.30;99.90;;;;;;5084251;28;20181;-58
2022/11/22 03:33:55;;;;;;;5.20;0.87;;;7.40;99.90;;;;;;5083420;28;20187;-58
2022/11/22 03:36:21;;;;;;;7.97;0.57;;;7.30;99.90;;;;;;5081402;28;20203;-58
2022/11/22 03:38:47;;;;;;;5.90;0.97;;;;;;;;;;5092341;28;20638;-58
2022/11/22 03:41:12;;;;;;;2.47;0.60;;;7.40;99.90;;;;;;5072314;28;20339;-57
2022/11/22 03:43:38;;;;;;;10.63;0.90;;;;;;;;;;5072042;28;20208;-57
2022/11/22 03:46:04;;;;;;;4.30;0.90;;;7.00;99.90;;;;;;5082538;28;20183;-58
2022/11/22 03:48:30;;;;;;;7.13;0.90;;;7.10;99.90;;;;;;5077253;28;20192;-58
2022/11/22 03:51:05;;;;;;;6.77;0.47;;;7.10;99.90;;;;;;5079918;28;20184;-58
2022/11/22 03:53:31;;;;;;;6.80;0.80;;;7.10;99.90;;;;;;5077566;28;20259;-58
2022/11/22 03:55:57;;;;;;;5.63;0.80;;;7.20;99.90;;;;;;5072302;28;20267;-57
2022/11/22 03:58:22;;;;;;;4.67;1.20;;;7.20;99.90;;;;;;5071844;28;20214;-58
2022/11/22 04:00:48;;;;;;;10.30;0.80;;;7.30;99.90;;;;;;5072061;28;20176;-58
2022/11/22 04:03:14;;;;;;;9.30;0.80;;;7.20;99.90;;;;;;5071728;28;20212;-58
2022/11/22 04:05:39;;;;;;;7.37;0.90;;;7.00;99.90;;;;;;5076034;28;20184;-58
2022/11/22 04:08:05;;;;;;;6.77;0.70;;;6.80;99.90;;;;;;5071553;28;20697;-58
2022/11/22 04:10:30;;;;;;;10.00;0.83;;;7.60;99.90;;;;;;5073131;28;20180;-58
2022/11/22 04:12:59;;;;;;;10.10;1.03;;;7.20;99.90;;;;;;5071431;28;20212;-58
2022/11/22 04:15:25;;;;;;;10.90;1.00;;;8.00;99.90;;;;;;5071547;28;20644;-58
2022/11/22 04:17:51;;;;;;;9.50;0.80;;;7.30;99.90;;;;;;5071470;28;20233;-58
2022/11/22 04:23:10;;;;;;;6.40;1.07;;;7.20;99.90;;;;;;5071869;28;20658;-57
2022/11/22 04:25:38;;;;;;;6.20;1.00;;;7.20;99.90;;;;;;5071616;28;20690;-58
2022/11/22 04:28:06;;;;;;;10.20;1.00;;;7.20;99.90;;;;;;5069049;28;20188;-58
2022/11/22 04:33:16;;;;;;;7.10;1.07;;;7.00;99.90;;;;;;5085343;28;20267;-58
2022/11/22 04:35:43;;;;;;;11.00;0.83;;;7.00;99.90;;;;;;5079176;28;20651;-58
2022/11/22 04:38:10;;;;;;;8.10;0.90;;;7.00;99.90;;;;;;5071081;28;20164;-57
2022/11/22 04:40:36;;;;;;;7.23;0.87;;;7.00;99.90;;;;;;5070176;28;20694;-57
2022/11/22 04:45:47;;;;;;;8.60;1.60;;;7.00;99.90;;;;;;5073812;28;20605;-57
2022/11/22 04:48:13;;;;;;;6.87;1.40;;;7.00;99.90;;;;;;5077102;28;20204;-57
2022/11/22 04:53:25;;;;;;;6.27;1.47;;;;;;;;;;5071164;28;20234;-57
2022/11/22 04:55:50;;;;;;;7.80;1.27;;;6.80;99.90;;;;;;5079715;28;20179;-57
2022/11/22 04:58:16;;;;;;;3.23;0.83;;;7.00;99.90;;;;;;5078814;28;20538;-57
2022/11/22 05:00:43;;;;;;;12.73;1.37;;;6.70;99.90;;;;;;5071021;28;20274;-57
2022/11/22 05:03:08;;;;;;;9.10;1.40;;;6.60;99.90;;;;;;5070944;28;20208;-57
2022/11/22 05:05:39;;;;;;;11.17;1.40;;;6.70;99.90;;;;;;5074813;28;20263;-57
2022/11/22 05:08:06;;;;;;;7.97;1.10;;;6.60;99.90;;;;;;5069677;28;20172;-57
2022/11/22 05:10:55;;;;;;;7.20;1.27;;;6.50;99.90;;;;;;5070970;28;20172;-57
2022/11/22 05:13:20;;;;;;;5.63;1.23;;;6.50;99.90;;;;;;5070702;28;20188;-57
2022/11/22 05:15:46;;;;;;;14.63;1.60;;;6.80;99.90;;;;;;5070933;28;20195;-57
2022/11/22 05:18:12;;;;;;;6.67;0.87;;;6.40;99.90;;;;;;5071098;28;20275;-57
2022/11/22 05:20:37;;;;;;;6.40;1.33;;;6.40;99.90;;;;;;5076236;28;20210;-57
2022/11/22 05:25:48;;;;;;;7.20;1.30;;;6.20;99.90;;;;;;5083844;28;20591;-55
2022/11/22 05:28:14;;;;;;;9.63;1.97;;;6.30;99.90;;;;;;5071378;28;20211;-55
2022/11/22 05:30:40;;;;;;;10.70;1.60;;;;;;;;;;5083689;28;20180;-55
2022/11/22 05:33:06;;;;;;;11.93;1.87;;;6.30;99.90;;;;;;5085724;28;20186;-55
2022/11/22 05:35:32;;;;;;;15.00;2.10;;;6.40;99.90;;;;;;5081871;28;20698;-55
2022/11/22 05:37:57;;;;;;;12.50;1.90;;;6.60;99.90;;;;;;5069033;28;20211;-55
2022/11/22 05:40:24;;;;;;;17.77;2.13;;;6.80;99.90;;;;;;5077784;28;20213;-56
2022/11/22 05:42:49;;;;;;;9.80;1.60;;;7.20;99.90;;;;;;5070440;28;20279;-55
2022/11/22 05:45:15;;;;;;;11.37;2.40;;;6.90;99.90;;;;;;5073776;28;20199;-56
2022/11/22 05:47:41;;;;;;;13.17;2.20;;;6.90;99.90;;;;;;5090777;28;20654;-55
2022/11/22 05:50:07;;;;;;;8.67;2.00;;;7.00;99.90;;;;;;5089066;28;20199;-56
2022/11/22 05:52:33;;;;;;;16.53;2.10;;;7.00;99.90;;;;;;5091092;28;20172;-56
2022/11/22 05:54:59;;;;;;;17.77;1.90;;;7.40;99.90;;;;;;5074489;28;20172;-55
2022/11/22 05:57:25;;;;;;;8.77;1.90;;;7.50;99.90;;;;;;5074186;28;20234;-56
2022/11/22 05:59:50;;;;;;;15.40;1.93;;;7.30;99.90;;;;;;5074089;28;20184;-56
2022/11/22 06:02:16;;;;;;;10.77;2.07;;;7.30;99.90;;;;;;5074339;28;20616;-56
2022/11/22 06:04:42;;;;;;;21.83;2.53;;;7.30;99.90;;;;;;5074296;28;20580;-56
2022/11/22 06:07:07;;;;;;;10.83;2.00;;;7.30;99.90;;;;;;5077478;28;20233;-56
2022/11/22 06:09:33;;;;;;;10.83;2.03;;;7.30;99.90;;;;;;5086844;28;20194;-56
2022/11/22 06:11:59;;;;;;;10.47;1.97;;;7.20;99.90;;;;;;5082641;28;20176;-56
2022/11/22 06:14:24;;;;;;;8.20;1.60;;;7.10;99.90;;;;;;5074089;28;20181;-56
2022/11/22 06:16:50;;;;;;;11.97;1.97;;;7.10;99.90;;;;;;5074084;28;20184;-56
2022/11/22 06:19:16;;;;;;;14.90;2.30;;;7.10;99.90;;;;;;5073864;28;20176;-57
2022/11/22 06:21:42;;;;;;;16.33;2.67;;;7.10;99.90;;;;;;5073744;28;20175;-56
2022/11/22 06:24:08;;;;;;;9.07;1.77;;;7.10;99.90;;;;;;5081619;28;20553;-56
2022/11/22 06:26:34;;;;;;;10.00;2.37;;;;;;;;;;5090647;28;20244;-56
2022/11/22 06:29:00;;;;;;;7.93;2.10;;;7.10;99.90;;;;;;5075312;28;20188;-56
2022/11/22 06:31:26;;;;;;;11.80;2.23;;;7.10;99.90;;;;;;5075173;28;20191;-56
2022/11/22 06:33:54;;;;;;;9.53;2.30;;;7.30;99.90;;;;;;5073885;28;20249;-56
2022/11/22 06:36:22;;;;;;;14.13;2.33;;;6.90;99.90;;;;;;5082189;28;20224;-56
2022/11/22 06:38:48;;;;;;;7.80;2.20;;;6.00;99.90;;;;;;5093724;28;20168;-56
2022/11/22 06:41:22;;;;;;;6.23;2.23;;;6.80;99.90;;;;;;5073292;28;20402;-56
2022/11/22 06:43:49;;;;;;;11.37;2.10;;;6.60;99.90;;;;;;5073612;28;20214;-56
2022/11/22 06:46:19;;;;;;;16.53;2.77;;;6.30;99.90;;;;;;5077263;28;20255;-56
2022/11/22 06:48:45;;;;;;;12.63;2.70;;;6.50;99.90;;;;;;5073117;28;20188;-56
2022/11/22 06:51:19;;;;;;;11.93;2.47;;;6.10;99.90;;;;;;5083193;28;20187;-56
2022/11/22 06:53:46;;;;;;;9.77;2.80;;;6.40;99.90;;;;;;5091475;28;20183;-56
2022/11/22 06:56:14;;;;;;;12.47;2.80;;;6.40;99.90;;;;;;5074046;28;20191;-57
2022/11/22 06:58:40;;;;;;;10.30;2.90;;;;;;;;;;5073425;28;20180;-56
2022/11/22 07:01:13;;;;;;;7.50;2.83;;;6.30;99.90;;;;;;5072869;28;20188;-56
2022/11/22 07:03:40;;;;;;;10.23;2.70;;;6.30;99.90;;;;;;5075008;28;20252;-56
2022/11/22 07:06:07;;;;;;;11.30;3.30;;;6.20;99.90;;;;;;5083204;28;20179;-56
2022/11/22 07:08:34;;;;;;;8.13;2.50;;;6.20;99.90;;;;;;5071398;28;20208;-57
2022/11/22 07:11:10;;;;;;;64.47;4.33;;;6.00;99.90;;;;;;5075842;28;20666;-56
2022/11/22 07:13:36;;;;;;;12.43;3.03;;;6.10;99.90;;;;;;5074190;28;20172;-56
2022/11/22 07:16:04;;;;;;;13.03;3.17;;;6.30;99.90;;;;;;5076225;28;20709;-57
2022/11/22 07:18:29;;;;;;;404.57;36.67;;;6.10;99.90;;;;;;5075008;28;20252;-57
2022/11/22 07:21:04;;;;;;;103.03;8.27;;;6.10;99.90;;;;;;5084723;28;20579;-57
2022/11/22 07:23:29;;;;;;;23.77;6.20;;;6.00;99.90;;;;;;5090565;28;20258;-56
2022/11/22 07:25:56;;;;;;;145.23;12.97;;;6.00;99.90;;;;;;5089836;28;20204;-57
2022/11/22 07:28:22;;;;;;;16.13;3.90;;;5.90;99.90;;;;;;5080870;28;20183;-57
2022/11/22 07:30:48;;;;;;;9.83;4.00;;;5.80;99.90;;;;;;5090805;28;20249;-57
2022/11/22 07:33:13;;;;;;;13.57;4.10;;;5.80;99.90;;;;;;5061481;28;20651;-56
2022/11/22 07:35:39;;;;;;;17.17;3.77;;;5.80;99.90;;;;;;5072438;28;20639;-56
2022/11/22 07:38:05;;;;;;;11.90;3.63;;;5.90;99.90;;;;;;5072084;28;20176;-56
2022/11/22 07:40:31;;;;;;;446.53;22.47;;;5.80;99.90;;;;;;5075574;28;20220;-56
2022/11/22 07:42:56;;;;;;;17.30;4.73;;;5.50;99.90;;;;;;5088984;28;20200;-56
2022/11/22 07:45:22;;;;;;;17.90;5.70;;;5.80;99.90;;;;;;5086218;28;20179;-56
2022/11/22 07:47:48;;;;;;;11.23;3.53;;;5.80;99.90;;;;;;5092208;28;20171;-56
2022/11/22 07:50:14;;;;;;;14.00;4.10;;;5.70;99.90;;;;;;5090551;28;20643;-56
2022/11/22 07:52:39;;;;;;;16.90;4.13;;;5.70;99.90;;;;;;5073444;28;20185;-56
2022/11/22 07:55:06;;;;;;;12.83;4.20;;;5.90;99.90;;;;;;5071829;28;20555;-55
2022/11/22 07:57:32;;;;;;;15.97;3.97;;;5.50;99.90;;;;;;5079284;28;20185;-55
2022/11/22 07:59:58;;;;;;;13.67;4.33;;;5.70;99.90;;;;;;5057025;28;20180;-55
2022/11/22 08:02:24;;;;;;;12.10;4.37;;;5.80;99.90;;;;;;5079601;28;20560;-56
2022/11/22 08:04:50;;;;;;;13.80;4.53;;;6.10;99.90;;;;;;5084061;28;20187;-56
2022/11/22 08:07:16;;;;;;;18.77;4.47;;;;;;;;;;5091532;28;20210;-58
2022/11/22 08:09:41;;;;;;;13.13;4.70;;;6.00;99.90;;;;;;5091541;28;20196;-59
2022/11/22 08:12:07;;;;;;;18.80;4.77;;;6.80;99.90;;;;;;5090272;28;20210;-59
2022/11/22 08:14:33;;;;;;;10.30;4.27;;;6.40;99.90;;;;;;5084737;28;20227;-58
2022/11/22 08:16:58;;;;;;;17.20;5.10;;;6.20;99.90;;;;;;5080814;28;20176;-58
2022/11/22 08:19:24;;;;;;;14.10;4.33;;;6.30;99.90;;;;;;5080701;28;20180;-57
2022/11/22 08:21:49;;;;;;;16.83;4.97;;;6.40;99.90;;;;;;5072184;28;20184;-57
2022/11/22 08:24:15;;;;;;;15.07;4.60;;;6.40;99.90;;;;;;5071680;28;20289;-57
2022/11/22 08:26:41;;;;;;;16.33;4.57;;;6.50;99.90;;;;;;5071327;28;20622;-58
2022/11/22 08:29:10;;;;;;;15.17;4.37;;;6.60;99.90;;;;;;5080382;28;20538;-57
2022/11/22 08:31:36;;;;;;;21.30;5.33;;;7.00;99.90;;;;;;5071257;28;20173;-57
2022/11/22 08:34:02;;;;;;;15.90;5.03;;;6.90;99.90;;;;;;5071382;28;20183;-58
2022/11/22 08:36:28;;;;;;;14.00;4.60;;;6.70;99.90;;;;;;5071262;28;20194;-58
2022/11/22 08:38:54;;;;;;;213.60;13.00;;;6.80;99.90;;;;;;5075953;28;20721;-58
2022/11/22 08:41:20;;;;;;;20.13;5.80;;;6.80;99.90;;;;;;5085207;28;20228;-58
2022/11/22 08:43:48;;;;;;;11.20;4.70;;;6.80;99.90;;;;;;5091037;28;20258;-58
2022/11/22 08:46:15;;;;;;;10.60;4.47;;;6.80;99.90;;;;;;5103966;28;20195;-58
2022/11/22 08:48:41;;;;;;;12.30;5.30;;;6.70;99.90;;;;;;5111589;28;20175;-58
2022/11/22 08:51:08;;;;;;;17.63;5.60;;;6.70;99.90;;;;;;5095610;28;20263;-57
2022/11/22 08:53:36;;;;;;;18.43;6.03;;;7.10;99.90;;;;;;5070630;28;20222;-58
2022/11/22 08:56:04;;;;;;;23.63;8.00;;;7.70;99.90;;;;;;5078666;28;20186;-58
2022/11/22 08:58:31;;;;;;;15.67;5.77;;;7.70;99.90;;;;;;5091043;28;20219;-57
2022/11/22 09:01:03;;;;;;;10.70;2.90;;;7.60;99.90;;;;;;5088747;28;20568;-58
2022/11/22 09:03:28;;;;;;;13.90;3.03;;;8.50;99.90;;;;;;5077930;28;20216;-56
2022/11/22 09:06:00;;;;;;;13.13;3.37;;;10.80;99.90;;;;;;5052795;28;20211;-57
2022/11/22 09:08:26;;;;;;;8.20;2.17;;;10.40;99.90;;;;;;5068071;28;20219;-57
2022/11/22 09:10:51;;;;;;;12.97;2.80;;;11.50;99.90;;;;;;5079943;28;20192;-56
2022/11/22 09:13:17;;;;;;;8.47;2.47;;;11.50;99.90;;;;;;5071020;28;20616;-55
2022/11/22 09:15:43;;;;;;;9.03;1.77;;;;;;;;;;5072248;28;20167;-55
2022/11/22 09:18:09;;;;;;;5.20;1.50;;;;;;;;;;5076591;28;20204;-54
2022/11/22 09:20:35;;;;;;;6.97;2.03;;;11.40;99.90;;;;;;5090766;28;20633;-57
2022/11/22 09:23:02;;;;;;;8.67;2.57;;;12.50;99.90;;;;;;5079665;28;20247;-55
2022/11/22 09:25:28;;;;;;;7.83;1.80;;;12.10;99.90;;;;;;5070863;28;20160;-55
2022/11/22 09:27:54;;;;;;;9.13;1.80;;;;;;;;;;5084876;28;20186;-55
2022/11/22 09:30:20;;;;;;;5.43;1.83;;;10.60;99.90;;;;;;5094803;28;20174;-56
2022/11/22 09:32:46;;;;;;;9.10;2.10;;;10.50;99.90;;;;;;5093112;28;20250;-54
2022/11/22 09:35:12;;;;;;;11.37;2.50;;;10.60;99.90;;;;;;5094059;28;20740;-55
2022/11/22 09:37:37;;;;;;;6.60;2.43;;;10.50;99.90;;;;;;5091284;28;20176;-55
2022/11/22 09:40:03;;;;;;;8.50;2.00;;;10.60;99.90;;;;;;5074136;28;20177;-54
2022/11/22 09:42:46;;;;;;;6.00;1.90;;;10.60;99.90;;;;;;5074270;28;20276;-55
2022/11/22 09:45:20;;;;;;;12.47;2.53;;;10.80;99.90;;;;;;5061688;28;20176;-55
2022/11/22 09:48:16;;;;;;;8.83;2.03;;;10.70;99.90;;;;;;5090293;28;20266;-55
2022/11/22 09:50:55;;;;;;;11.60;2.40;;;10.70;99.90;;;;;;5092631;28;20195;-55
2022/11/22 09:53:33;;;;;;;8.03;2.73;;;10.70;99.90;;;;;;5078733;28;20176;-55
2022/11/22 09:56:03;;;;;;;9.00;2.20;;;10.90;99.90;;;;;;5074052;28;20184;-55
2022/11/22 09:58:46;;;;;;;10.13;2.60;;;10.20;99.90;;;;;;5073883;28;20188;-55
2022/11/22 10:01:38;;;;;;;20.53;2.53;;;11.00;99.90;;;;;;5073770;28;20214;-55
2022/11/22 10:04:21;;;;;;;10.17;2.93;;;11.10;99.90;;;;;;5067711;28;20259;-55
2022/11/22 10:07:12;;;;;;;8.53;2.57;;;11.10;99.90;;;;;;5073705;28;20178;-55
2022/11/22 10:09:46;;;;;;;10.07;2.40;;;11.00;99.90;;;;;;5078372;28;20243;-55
2022/11/22 10:12:34;;;;;;;9.10;2.43;;;10.90;99.90;;;;;;5092123;28;20263;-55
2022/11/22 10:15:24;;;;;;;13.27;2.70;;;10.90;99.90;;;;;;5085609;28;20199;-56
2022/11/22 10:18:00;;;;;;;8.50;2.30;;;10.70;99.90;;;;;;5078515;28;20245;-56
2022/11/22 10:20:40;;;;;;;8.43;2.97;;;10.60;99.90;;;;;;5077273;28;20164;-56
2022/11/22 10:23:32;;;;;;;5.30;1.37;;;10.90;99.90;;;;;;5093211;28;20306;-56
2022/11/22 10:26:16;;;;;;;7.20;1.27;;;11.00;99.90;;;;;;5088512;28;20180;-55
2022/11/22 10:28:52;;;;;;;5.93;1.27;;;11.10;99.90;;;;;;5093492;28;20178;-56
2022/11/22 10:31:27;;;;;;;9.87;1.67;;;11.40;99.90;;;;;;5079744;28;20230;-55
2022/11/22 10:34:01;;;;;;;5.87;1.57;;;11.80;99.90;;;;;;5073358;28;20168;-55
2022/11/22 10:36:33;;;;;;;8.20;1.83;;;14.50;99.90;;;;;;5077639;28;20171;-55
2022/11/22 10:39:17;;;;;;;8.70;1.90;;;14.80;99.90;;;;;;5077943;28;20187;-55
2022/11/22 10:42:04;;;;;;;6.63;2.80;;;14.90;99.90;;;;;;5082828;28;20224;-55
2022/11/22 10:44:45;;;;;;;8.85;1.52;;;15.20;99.90;;;;;;5073349;28;20290;-55
2022/11/22 10:47:22;;;;;;;10.70;1.80;;;14.70;99.90;;;;;;5073201;28;20715;-55
2022/11/22 10:50:20;;;;;;;15.52;2.17;;;15.50;99.90;;;;;;5073133;28;20643;-55
2022/11/22 10:53:03;;;;;;;7.22;1.55;;;14.80;99.90;;;;;;5073036;28;20165;-55
2022/11/22 10:55:52;;;;;;;10.27;1.63;;;14.40;99.90;;;;;;5072905;28;20643;-55
2022/11/22 10:58:51;;;;;;;6.25;1.52;;;13.20;99.90;;;;;;5072172;28;20230;-54
2022/11/22 11:01:46;;;;;;;18.48;2.67;;;12.60;99.90;;;;;;5068439;28;20212;-55
2022/11/22 11:04:14;;;;;;;10.95;2.10;;;12.60;99.90;;;;;;5072679;28;20234;-55
2022/11/22 11:06:44;;;;;;;5.05;1.55;;;12.80;99.90;;;;;;5072720;28;20168;-55
2022/11/22 11:09:22;;;;;;;8.18;2.13;;;13.20;99.90;;;;;;5072431;28;20169;-55
2022/11/22 11:11:50;;;;;;;7.70;1.60;;;14.10;99.90;;;;;;5072904;28;20526;-55
2022/11/22 11:14:26;;;;;;;7.43;1.65;;;14.30;99.90;;;;;;5072707;28;20165;-55
2022/11/22 11:16:52;;;;;;;8.32;1.38;;;13.90;99.90;;;;;;5072619;28;20182;-53
2022/11/22 11:19:31;;;;;;;8.18;1.73;;;13.30;99.90;;;;;;5072509;28;20183;-54
2022/11/22 11:22:09;;;;;;;7.25;1.80;;;14.40;99.90;;;;;;5072540;28;20207;-54
2022/11/22 11:24:38;;;;;;;28.92;7.05;;;16.10;99.90;;;;;;5072378;28;20195;-54
2022/11/22 11:27:06;;;;;;;109.18;17.15;;;16.30;99.90;;;;;;5072373;28;20268;-54
2022/11/22 11:29:39;;;;;;;28.55;4.47;;;16.30;99.90;;;;;;5072118;28;20207;-54
2022/11/22 11:32:15;;;;;;;11.85;2.50;;;16.50;99.90;;;;;;5071839;28;20176;-54
2022/11/22 11:34:56;;;;;;;22.05;7.03;;;17.20;99.90;;;;;;5083150;28;20172;-54
2022/11/22 11:37:25;;;;;;;10.13;2.10;;;16.00;99.90;;;;;;5072097;28;20172;-54
2022/11/22 11:39:50;;;;;;;11.32;2.50;;;14.70;99.90;;;;;;5071893;28;20632;-54
2022/11/22 11:42:28;;;;;;;9.52;2.10;;;13.90;99.90;;;;;;5072147;28;20188;-54
2022/11/22 11:44:54;;;;;;;5.25;1.83;;;13.10;99.90;;;;;;5072011;28;20172;-54
2022/11/22 11:47:32;;;;;;;10.23;2.33;;;11.70;99.90;;;;;;5072048;28;20171;-54
2022/11/22 11:49:58;;;;;;;6.63;2.03;;;11.90;99.90;;;;;;5071576;28;20183;-53
2022/11/22 11:52:28;;;;;;;10.02;2.22;;;13.40;99.90;;;;;;5071806;28;20173;-54
2022/11/22 11:55:01;;;;;;;9.98;2.53;;;11.30;99.90;;;;;;5063816;28;20658;-54
2022/11/22 11:57:30;;;;;;;13.10;2.37;;;11.20;99.90;;;;;;5071798;28;20311;-54
2022/11/22 12:00:00;;;;;;;14.47;4.03;;;11.30;99.90;;;;;;5071538;28;20177;-54
2022/11/22 12:02:38;;;;;;;14.27;3.37;;;11.40;99.90;;;;;;5071464;28;20234;-54
2022/11/22 12:05:06;;;;;;;10.33;2.40;;;12.30;99.90;;;;;;5071618;28;20188;-55
2022/11/22 12:07:34;;;;;;;9.87;2.80;;;12.00;99.90;;;;;;5071689;28;20196;-54
2022/11/22 12:10:02;;;;;;;12.50;2.80;;;11.10;99.90;;;;;;5071835;28;20180;-54
2022/11/22 12:12:44;;;;;;;8.10;2.27;;;14.40;99.90;;;;;;5071545;28;20196;-54
2022/11/22 12:15:28;;;;;;;11.73;2.37;;;14.80;99.90;;;;;;5071547;28;20235;-54
2022/11/22 12:18:16;;;;;;;8.10;1.77;;;14.10;99.90;;;;;;5053393;28;20183;-55
2022/11/22 12:20:50;;;;;;;16.38;2.30;;;13.00;99.90;;;;;;5071681;28;20183;-55
2022/11/22 12:23:39;;;;;;;8.35;2.20;;;14.90;99.90;;;;;;5071242;28;20196;-55
2022/11/22 12:26:05;;;;;;;10.38;1.92;;;16.90;99.90;;;;;;5071341;28;20255;-55
2022/11/22 12:28:31;;;;;;;9.48;2.00;;;19.70;99.90;;;;;;5071066;28;20251;-54
2022/11/22 12:31:27;;;;;;;9.05;1.58;;;21.70;99.90;;;;;;5071062;28;20603;-54
2022/11/22 12:33:59;;;;;;;6.97;1.60;;;21.30;99.90;;;;;;5056954;28;20234;-54
2022/11/22 12:36:34;;;;;;;6.60;1.50;;;24.30;99.90;;;;;;5070855;28;20176;-55
2022/11/22 12:39:02;;;;;;;3.45;1.10;;;25.00;99.90;;;;;;5071140;28;20203;-55
2022/11/22 12:41:32;;;;;;;2.70;1.10;;;25.70;99.90;;;;;;5071015;28;20298;-55
2022/11/22 12:44:01;;;;;;;5.20;1.35;;;26.00;99.90;;;;;;5070937;28;20298;-54
2022/11/22 12:46:40;;;;;;;4.95;1.23;;;26.40;99.90;;;;;;5070985;28;20255;-55
2022/11/22 12:49:06;;;;;;;2.58;0.95;;;26.40;99.90;;;;;;5067963;28;20319;-54
2022/11/22 12:51:44;;;;;;;5.70;1.23;;;26.50;99.90;;;;;;5066208;28;20192;-54
2022/11/22 12:54:18;;;;;;;5.93;1.10;;;25.60;99.90;;;;;;5070997;28;20172;-54
2022/11/22 12:56:47;;;;;;;3.95;1.40;;;24.20;99.90;;;;;;5070870;28;20240;-54
2022/11/22 12:59:55;;;;;;;5.57;1.40;;;19.50;99.90;;;;;;5070968;28;20249;-54
2022/11/22 13:02:56;;;;;;;6.13;1.20;;;17.40;99.90;;;;;;5051612;28;20543;-54
2022/11/22 13:05:25;;;;;;;4.55;1.20;;;19.80;99.90;;;;;;5059986;28;20184;-54
2022/11/22 13:08:15;;;;;;;3.47;1.00;;;20.90;99.90;;;;;;5070714;28;20204;-54
2022/11/22 13:10:49;;;;;;;4.55;1.45;;;23.20;99.90;;;;;;5070698;28;20184;-54
2022/11/22 13:13:32;;;;;;;6.90;1.60;;;22.80;99.90;;;;;;5070711;28;20255;-54
2022/11/22 13:16:01;;;;;;;6.68;1.65;;;23.00;99.90;;;;;;5070768;28;20206;-54
2022/11/22 13:18:31;;;;;;;7.55;1.80;;;24.00;99.90;;;;;;5074065;28;20196;-54